Time;durP1;ratioP1;P1;durP2;ratioP2;P2;SDS_P1;SDS_P2;PMS_P1;PMS_P2;Temp;Humidity;BMP_temperature;BMP_pressure;BME280_temperature;BME280_humidity;BME280_pressure;Samples;Min_cycle;Max_cycle;Signal;HPM_P1;HPM_P2
2023/07/23 00:02:16;;;;;;;;;;;21.60;59.90;;;;;;5056036;28;19916;-54
2023/07/23 00:04:41;;;;;;;;;;;21.60;59.90;;;;;;5051659;28;19917;-54
2023/07/23 00:07:07;;;;;;;;;;;21.70;60.00;;;;;;5051185;28;19917;-54
2023/07/23 00:09:32;;;;;;;;;;;21.70;60.00;;;;;;5059937;28;19919;-54
2023/07/23 00:11:58;;;;;;;;;;;21.60;59.90;;;;;;5058436;28;19923;-53
2023/07/23 00:14:23;;;;;;;;;;;21.70;60.10;;;;;;5052876;28;19928;-54
2023/07/23 00:16:48;;;;;;;;;;;21.70;60.20;;;;;;5058248;28;19913;-54
2023/07/23 00:19:19;;;;;;;;;;;21.70;60.30;;;;;;5063849;28;20377;-54
2023/07/23 00:21:45;;;;;;;;;;;21.60;60.20;;;;;;5062109;28;19913;-54
2023/07/23 00:24:10;;;;;;;;;;;21.70;60.30;;;;;;5067851;28;20280;-54
2023/07/23 00:26:36;;;;;;;;;;;21.70;60.30;;;;;;5052894;28;19923;-54
2023/07/23 00:29:01;;;;;;;;;;;21.70;60.30;;;;;;5057233;28;19932;-54
2023/07/23 00:31:27;;;;;;;;;;;21.60;60.30;;;;;;5064063;28;19924;-54
2023/07/23 00:33:52;;;;;;;;;;;21.60;60.50;;;;;;5061728;28;19916;-54
2023/07/23 00:36:18;;;;;;;;;;;21.60;60.70;;;;;;5057102;28;19916;-54
2023/07/23 00:38:43;;;;;;;;;;;21.60;60.80;;;;;;5055675;28;20333;-53
2023/07/23 00:41:09;;;;;;;;;;;21.60;60.60;;;;;;5060669;28;19935;-54
2023/07/23 00:43:34;;;;;;;;;;;21.60;60.70;;;;;;5061351;28;19920;-54
2023/07/23 00:45:59;;;;;;;;;;;21.60;60.90;;;;;;5056510;28;20008;-53
2023/07/23 00:48:25;;;;;;;;;;;21.60;60.80;;;;;;5053445;28;19975;-55
2023/07/23 00:50:50;;;;;;;;;;;21.60;61.00;;;;;;5053356;28;20007;-54
2023/07/23 00:53:16;;;;;;;;;;;21.60;61.20;;;;;;5053492;28;19978;-54
2023/07/23 00:55:41;;;;;;;;;;;21.60;61.20;;;;;;5057164;28;19917;-55
2023/07/23 00:58:08;;;;;;;;;;;21.50;61.20;;;;;;5052867;28;19913;-54
2023/07/23 01:00:33;;;;;;;;;;;21.50;61.30;;;;;;5052772;28;19924;-55
2023/07/23 01:02:59;;;;;;;;;;;21.60;61.40;;;;;;5055725;28;19917;-54
2023/07/23 01:05:24;;;;;;;;;;;21.50;61.30;;;;;;5054589;28;19909;-54
2023/07/23 01:07:49;;;;;;;;;;;21.50;61.50;;;;;;5056026;28;19917;-54
2023/07/23 01:10:16;;;;;;;;;;;21.50;61.60;;;;;;5058437;28;19958;-54
2023/07/23 01:12:41;;;;;;;;;;;21.50;61.70;;;;;;5054933;28;19978;-54
2023/07/23 01:15:07;;;;;;;;;;;21.50;61.80;;;;;;5054431;28;19912;-54
2023/07/23 01:17:33;;;;;;;;;;;21.50;61.80;;;;;;5067389;28;20369;-54
2023/07/23 01:20:05;;;;;;;;;;;21.50;61.70;;;;;;5067620;28;19923;-54
2023/07/23 01:22:31;;;;;;;;;;;21.50;61.70;;;;;;5053898;28;19919;-54
2023/07/23 01:24:57;;;;;;;;;;;21.50;61.80;;;;;;5059556;28;19916;-54
2023/07/23 01:27:22;;;;;;;;;;;21.50;61.80;;;;;;5054638;28;19920;-54
2023/07/23 01:29:48;;;;;;;;;;;21.50;61.90;;;;;;5059463;28;19924;-54
2023/07/23 01:32:13;;;;;;;;;;;21.40;61.90;;;;;;5061238;28;20027;-54
2023/07/23 01:34:38;;;;;;;;;;;21.50;62.00;;;;;;5057778;28;19912;-53
2023/07/23 01:37:04;;;;;;;;;;;21.50;62.00;;;;;;5063793;28;19924;-54
2023/07/23 01:39:32;;;;;;;;;;;21.50;62.10;;;;;;5052848;28;20414;-54
2023/07/23 01:41:57;;;;;;;;;;;21.50;62.20;;;;;;5053357;28;19926;-54
2023/07/23 01:44:23;;;;;;;;;;;21.50;62.30;;;;;;5053179;28;19999;-54
2023/07/23 01:46:49;;;;;;;;;;;21.40;62.20;;;;;;5055924;28;19920;-54
2023/07/23 01:49:15;;;;;;;;;;;21.50;62.30;;;;;;5061322;28;19921;-54
2023/07/23 01:51:40;;;;;;;;;;;21.50;62.30;;;;;;5053405;28;19912;-54
2023/07/23 01:54:06;;;;;;;;;;;21.40;62.10;;;;;;5055960;28;19924;-54
2023/07/23 01:56:31;;;;;;;;;;;21.50;62.30;;;;;;5063446;28;19921;-54
2023/07/23 01:58:57;;;;;;;;;;;21.40;62.40;;;;;;5055122;28;19962;-54
2023/07/23 02:01:22;;;;;;;;;;;21.40;62.30;;;;;;5057945;28;19960;-55
2023/07/23 02:03:48;;;;;;;;;;;21.40;62.30;;;;;;5056657;28;20385;-54
2023/07/23 02:06:13;;;;;;;;;;;21.40;62.30;;;;;;5064487;28;19920;-54
2023/07/23 02:08:39;;;;;;;;;;;21.40;62.40;;;;;;5068344;28;20016;-54
2023/07/23 02:11:06;;;;;;;;;;;21.40;62.50;;;;;;5057341;28;19928;-54
2023/07/23 02:13:31;;;;;;;;;;;21.50;62.70;;;;;;5063589;28;19909;-54
2023/07/23 02:15:57;;;;;;;;;;;21.40;62.60;;;;;;5065267;28;19912;-54
2023/07/23 02:18:22;;;;;;;;;;;21.40;62.60;;;;;;5062342;28;19917;-54
2023/07/23 02:20:48;;;;;;;;;;;21.40;62.60;;;;;;5084073;28;20388;-54
2023/07/23 02:23:14;;;;;;;;;;;21.40;62.60;;;;;;5063402;28;19919;-54
2023/07/23 02:25:41;;;;;;;;;;;21.40;62.60;;;;;;5057048;28;19912;-54
2023/07/23 02:28:08;;;;;;;;;;;21.40;62.70;;;;;;5058535;28;20380;-54
2023/07/23 02:30:33;;;;;;;;;;;21.40;62.60;;;;;;5053696;28;19913;-54
2023/07/23 02:32:59;;;;;;;;;;;21.40;62.60;;;;;;5056425;28;20404;-54
2023/07/23 02:35:24;;;;;;;;;;;21.40;62.60;;;;;;5064114;28;19912;-54
2023/07/23 02:37:50;;;;;;;;;;;21.40;62.60;;;;;;5063753;28;20000;-54
2023/07/23 02:40:15;;;;;;;;;;;21.40;62.80;;;;;;5058969;28;20007;-54
2023/07/23 02:42:40;;;;;;;;;;;21.40;62.90;;;;;;5055431;28;19925;-54
2023/07/23 02:45:06;;;;;;;;;;;21.40;62.80;;;;;;5056630;28;19962;-54
2023/07/23 02:47:31;;;;;;;;;;;21.40;62.80;;;;;;5054615;28;19929;-55
2023/07/23 02:49:57;;;;;;;;;;;21.40;62.80;;;;;;5063187;28;19963;-54
2023/07/23 02:52:23;;;;;;;;;;;21.40;62.80;;;;;;5055650;28;19909;-54
2023/07/23 02:54:49;;;;;;;;;;;21.40;62.80;;;;;;5055623;28;19913;-54
2023/07/23 02:57:14;;;;;;;;;;;21.40;62.80;;;;;;5061385;28;19913;-54
2023/07/23 02:59:40;;;;;;;;;;;21.40;63.00;;;;;;5051834;28;19913;-53
2023/07/23 03:02:05;;;;;;;;;;;21.30;63.00;;;;;;5058357;28;19920;-55
2023/07/23 03:04:31;;;;;;;;;;;21.30;63.00;;;;;;5064644;28;19920;-54
2023/07/23 03:06:56;;;;;;;;;;;21.30;62.90;;;;;;5057268;28;19924;-54
2023/07/23 03:09:22;;;;;;;;;;;21.30;63.00;;;;;;5063579;28;19939;-54
2023/07/23 03:11:47;;;;;;;;;;;21.30;62.80;;;;;;5052238;28;20349;-54
2023/07/23 03:14:13;;;;;;;;;;;21.30;63.00;;;;;;5052324;28;19909;-55
2023/07/23 03:16:38;;;;;;;;;;;21.30;63.00;;;;;;5070230;28;19908;-54
2023/07/23 03:19:04;;;;;;;;;;;21.30;63.00;;;;;;5061476;28;19951;-54
2023/07/23 03:21:29;;;;;;;;;;;21.30;63.10;;;;;;5063207;28;19913;-54
2023/07/23 03:23:55;;;;;;;;;;;21.30;63.10;;;;;;5051342;28;19920;-54
2023/07/23 03:26:20;;;;;;;;;;;21.30;63.10;;;;;;5064303;28;19916;-54
2023/07/23 03:28:46;;;;;;;;;;;21.40;63.10;;;;;;5062005;28;20415;-54
2023/07/23 03:31:11;;;;;;;;;;;21.30;63.10;;;;;;5059678;28;20003;-54
2023/07/23 03:33:37;;;;;;;;;;;21.30;63.00;;;;;;5061237;28;19916;-54
2023/07/23 03:36:03;;;;;;;;;;;21.30;63.10;;;;;;5063831;28;20436;-54
2023/07/23 03:38:29;;;;;;;;;;;21.30;63.10;;;;;;5051187;28;19938;-53
2023/07/23 03:40:55;;;;;;;;;;;21.30;63.20;;;;;;5050763;28;20011;-54
2023/07/23 03:43:20;;;;;;;;;;;21.30;63.30;;;;;;5056783;28;19991;-54
2023/07/23 03:45:46;;;;;;;;;;;21.30;63.40;;;;;;5068541;28;19916;-54
2023/07/23 03:48:11;;;;;;;;;;;21.30;63.40;;;;;;5062376;28;20095;-53
2023/07/23 03:50:36;;;;;;;;;;;21.30;63.40;;;;;;5067035;28;20078;-54
2023/07/23 03:53:02;;;;;;;;;;;21.30;63.50;;;;;;5056907;28;20468;-54
2023/07/23 03:55:28;;;;;;;;;;;21.30;63.60;;;;;;5060150;28;19909;-54
2023/07/23 03:57:53;;;;;;;;;;;21.20;63.60;;;;;;5067178;28;20440;-53
2023/07/23 04:00:19;;;;;;;;;;;21.20;63.60;;;;;;5068917;28;19912;-54
2023/07/23 04:02:44;;;;;;;;;;;21.20;63.60;;;;;;5057920;28;19972;-54
2023/07/23 04:05:10;;;;;;;;;;;21.20;63.60;;;;;;5057579;28;20377;-54
2023/07/23 04:07:35;;;;;;;;;;;21.20;63.80;;;;;;5062802;28;20633;-53
2023/07/23 04:10:03;;;;;;;;;;;21.20;63.70;;;;;;5061821;28;19912;-54
2023/07/23 04:12:28;;;;;;;;;;;21.20;63.70;;;;;;5055202;28;19962;-54
2023/07/23 04:14:54;;;;;;;;;;;21.20;63.90;;;;;;5062706;28;19940;-54
2023/07/23 04:17:19;;;;;;;;;;;21.20;63.90;;;;;;5070231;28;20019;-54
2023/07/23 04:19:45;;;;;;;;;;;21.20;63.80;;;;;;5062831;28;20458;-54
2023/07/23 04:22:10;;;;;;;;;;;21.20;64.10;;;;;;5064850;28;19951;-53
2023/07/23 04:24:36;;;;;;;;;;;21.20;64.20;;;;;;5060184;28;19920;-54
2023/07/23 04:27:01;;;;;;;;;;;21.20;64.20;;;;;;5062353;28;19920;-54
2023/07/23 04:29:26;;;;;;;;;;;21.20;64.20;;;;;;5061499;28;19924;-54
2023/07/23 04:31:52;;;;;;;;;;;21.20;64.20;;;;;;5071180;28;19982;-54
2023/07/23 04:34:17;;;;;;;;;;;21.10;64.20;;;;;;5063516;28;19936;-54
2023/07/23 04:36:43;;;;;;;;;;;21.20;64.40;;;;;;5055701;28;19963;-54
2023/07/23 04:39:09;;;;;;;;;;;21.20;64.30;;;;;;5057662;28;19920;-54
2023/07/23 04:41:35;;;;;;;;;;;21.20;64.20;;;;;;5056671;28;19913;-54
2023/07/23 04:44:00;;;;;;;;;;;21.20;64.30;;;;;;5057365;28;19920;-55
2023/07/23 04:46:26;;;;;;;;;;;21.20;64.30;;;;;;5057492;28;20374;-54
2023/07/23 04:48:51;;;;;;;;;;;21.20;64.30;;;;;;5056588;28;20440;-54
2023/07/23 04:51:17;;;;;;;;;;;21.10;64.30;;;;;;5056956;28;20324;-54
2023/07/23 04:53:42;;;;;;;;;;;21.10;64.50;;;;;;5057250;28;20526;-54
2023/07/23 04:56:08;;;;;;;;;;;21.10;64.50;;;;;;5065146;28;19970;-54
2023/07/23 04:58:33;;;;;;;;;;;21.10;64.50;;;;;;5057972;28;20004;-54
2023/07/23 05:01:05;;;;;;;;;;;21.10;64.60;;;;;;5056421;28;19913;-55
2023/07/23 05:03:30;;;;;;;;;;;21.10;64.70;;;;;;5064646;28;19920;-54
2023/07/23 05:05:55;;;;;;;;;;;21.10;64.70;;;;;;5066012;28;19912;-54
2023/07/23 05:08:21;;;;;;;;;;;21.10;64.80;;;;;;5056651;28;19917;-54
2023/07/23 05:10:46;;;;;;;;;;;21.10;64.90;;;;;;5067928;28;19923;-55
2023/07/23 05:13:12;;;;;;;;;;;21.00;64.80;;;;;;5059319;28;20294;-54
2023/07/23 05:15:38;;;;;;;;;;;21.10;64.80;;;;;;5061962;28;19913;-53
2023/07/23 05:18:03;;;;;;;;;;;21.10;64.90;;;;;;5055540;28;20288;-53
2023/07/23 05:20:29;;;;;;;;;;;21.10;64.90;;;;;;5057687;28;20384;-54
2023/07/23 05:22:55;;;;;;;;;;;21.10;64.90;;;;;;5054142;28;20305;-54
2023/07/23 05:25:20;;;;;;;;;;;21.00;65.00;;;;;;5063507;28;20419;-54
2023/07/23 05:27:46;;;;;;;;;;;21.00;65.10;;;;;;5063909;28;19920;-54
2023/07/23 05:30:11;;;;;;;;;;;21.00;65.10;;;;;;5053833;28;19966;-54
2023/07/23 05:32:36;;;;;;;;;;;21.00;65.20;;;;;;5064646;28;20005;-53
2023/07/23 05:35:02;;;;;;;;;;;21.00;65.30;;;;;;5062226;28;19924;-54
2023/07/23 05:37:29;;;;;;;;;;;21.00;65.40;;;;;;5057918;28;19912;-54
2023/07/23 05:39:54;;;;;;;;;;;21.00;65.60;;;;;;5064760;28;20262;-54
2023/07/23 05:42:20;;;;;;;;;;;21.00;65.70;;;;;;5057835;28;20359;-54
2023/07/23 05:44:45;;;;;;;;;;;21.00;65.70;;;;;;5058328;28;19923;-54
2023/07/23 05:47:11;;;;;;;;;;;21.00;65.60;;;;;;5054023;28;19924;-53
2023/07/23 05:49:36;;;;;;;;;;;20.90;65.60;;;;;;5055913;28;19913;-54
2023/07/23 05:52:02;;;;;;;;;;;21.00;65.80;;;;;;5055359;28;20369;-54
2023/07/23 05:54:28;;;;;;;;;;;21.00;65.80;;;;;;5058057;28;19936;-54
2023/07/23 05:56:53;;;;;;;;;;;20.90;65.80;;;;;;5056061;28;19936;-54
2023/07/23 05:59:18;;;;;;;;;;;20.90;66.10;;;;;;5053973;28;20407;-53
2023/07/23 06:01:44;;;;;;;;;;;20.90;66.00;;;;;;5054296;28;19913;-54
2023/07/23 06:04:10;;;;;;;;;;;20.90;66.00;;;;;;5061737;28;19948;-53
2023/07/23 06:06:35;;;;;;;;;;;20.90;66.00;;;;;;5059328;28;19927;-54
2023/07/23 06:09:00;;;;;;;;;;;21.00;66.10;;;;;;5062989;28;19987;-54
2023/07/23 06:11:26;;;;;;;;;;;20.90;66.00;;;;;;5063033;28;19913;-54
2023/07/23 06:13:51;;;;;;;;;;;21.00;66.10;;;;;;5070663;28;20436;-54
2023/07/23 06:16:17;;;;;;;;;;;21.00;65.90;;;;;;5061187;28;19909;-54
2023/07/23 06:18:42;;;;;;;;;;;20.90;65.80;;;;;;5054277;28;19924;-53
2023/07/23 06:21:08;;;;;;;;;;;21.00;66.10;;;;;;5060852;28;19913;-54
2023/07/23 06:23:33;;;;;;;;;;;21.00;66.20;;;;;;5053275;28;19916;-54
2023/07/23 06:25:59;;;;;;;;;;;21.00;66.10;;;;;;5056705;28;19913;-54
2023/07/23 06:28:24;;;;;;;;;;;21.00;66.10;;;;;;5052715;28;20364;-54
2023/07/23 06:30:50;;;;;;;;;;;21.00;65.80;;;;;;5061500;28;20289;-54
2023/07/23 06:33:15;;;;;;;;;;;21.00;66.10;;;;;;5056731;28;19921;-54
2023/07/23 06:35:44;;;;;;;;;;;21.00;66.00;;;;;;5058931;28;19920;-53
2023/07/23 06:38:09;;;;;;;;;;;21.00;66.00;;;;;;5058212;28;19939;-54
2023/07/23 06:40:34;;;;;;;;;;;21.00;66.10;;;;;;5054847;28;19921;-54
2023/07/23 06:43:00;;;;;;;;;;;21.00;66.20;;;;;;5055406;28;19913;-54
2023/07/23 06:45:25;;;;;;;;;;;21.00;66.30;;;;;;5059681;28;19915;-54
2023/07/23 06:47:51;;;;;;;;;;;20.90;66.30;;;;;;5064711;28;19920;-54
2023/07/23 06:50:18;;;;;;;;;;;20.90;66.40;;;;;;5054280;28;20003;-54
2023/07/23 06:52:43;;;;;;;;;;;20.90;66.50;;;;;;5054020;28;19927;-54
2023/07/23 06:55:09;;;;;;;;;;;20.90;66.50;;;;;;5058667;28;19999;-53
2023/07/23 06:57:34;;;;;;;;;;;20.90;66.60;;;;;;5059629;28;19968;-54
2023/07/23 07:00:00;;;;;;;;;;;20.90;66.50;;;;;;5052945;28;20031;-54
2023/07/23 07:02:25;;;;;;;;;;;20.90;66.70;;;;;;5056642;28;19935;-54
2023/07/23 07:04:51;;;;;;;;;;;20.90;66.70;;;;;;5056182;28;19963;-54
2023/07/23 07:07:16;;;;;;;;;;;20.90;66.90;;;;;;5052964;28;19917;-54
2023/07/23 07:09:42;;;;;;;;;;;20.90;66.90;;;;;;5052264;28;19912;-54
2023/07/23 07:12:07;;;;;;;;;;;20.90;67.00;;;;;;5053731;28;19967;-54
2023/07/23 07:14:33;;;;;;;;;;;20.90;66.80;;;;;;5056590;28;19912;-54
2023/07/23 07:16:58;;;;;;;;;;;20.90;66.90;;;;;;5052698;28;19916;-53
2023/07/23 07:19:24;;;;;;;;;;;20.90;67.20;;;;;;5056456;28;19923;-54
2023/07/23 07:21:50;;;;;;;;;;;20.90;67.30;;;;;;5069425;28;20014;-54
2023/07/23 07:24:16;;;;;;;;;;;20.90;67.30;;;;;;5057558;28;19913;-55
2023/07/23 07:26:42;;;;;;;;;;;20.90;67.30;;;;;;5064449;28;20289;-54
2023/07/23 07:29:07;;;;;;;;;;;20.90;67.30;;;;;;5052766;28;19920;-54
2023/07/23 07:31:33;;;;;;;;;;;20.90;67.30;;;;;;5059687;28;19920;-54
2023/07/23 07:33:59;;;;;;;;;;;20.90;67.40;;;;;;5066715;28;19939;-54
2023/07/23 07:36:24;;;;;;;;;;;20.90;67.30;;;;;;5061773;28;19920;-54
2023/07/23 07:38:49;;;;;;;;;;;20.90;67.30;;;;;;5051933;28;19917;-54
2023/07/23 07:41:15;;;;;;;;;;;20.90;67.30;;;;;;5052552;28;19962;-54
2023/07/23 07:43:40;;;;;;;;;;;20.90;67.40;;;;;;5066850;28;19958;-54
2023/07/23 07:46:08;;;;;;;;;;;20.90;67.30;;;;;;5056208;28;20562;-54
2023/07/23 07:48:37;;;;;;;;;;;20.90;67.40;;;;;;5054113;28;20373;-54
2023/07/23 07:51:04;;;;;;;;;;;20.90;67.40;;;;;;5054502;28;20416;-53
2023/07/23 07:53:29;;;;;;;;;;;20.90;67.40;;;;;;5060554;28;19917;-54
2023/07/23 07:55:55;;;;;;;;;;;20.90;67.40;;;;;;5054375;28;20008;-54
2023/07/23 07:58:27;;;;;;;;;;;20.90;67.40;;;;;;5063384;28;20360;-53
2023/07/23 08:00:56;;;;;;;;;;;20.90;67.60;;;;;;5054229;28;19924;-54
2023/07/23 08:03:21;;;;;;;;;;;20.90;68.60;;;;;;5062319;28;19916;-54
2023/07/23 08:05:47;;;;;;;;;;;20.90;68.00;;;;;;5064550;28;20295;-54
2023/07/23 08:08:13;;;;;;;;;;;20.90;68.20;;;;;;5057016;28;20385;-54
2023/07/23 08:10:39;;;;;;;;;;;20.90;68.40;;;;;;5054061;28;19962;-54
2023/07/23 08:13:04;;;;;;;;;;;20.90;68.50;;;;;;5055134;28;20366;-54
2023/07/23 08:15:30;;;;;;;;;;;20.90;68.60;;;;;;5050925;28;20262;-54
2023/07/23 08:17:56;;;;;;;;;;;20.90;68.60;;;;;;5051646;28;19974;-54
2023/07/23 08:20:22;;;;;;;;;;;20.90;68.70;;;;;;5052285;28;19912;-53
2023/07/23 08:22:47;;;;;;;;;;;20.90;68.90;;;;;;5064274;28;20392;-54
2023/07/23 08:25:13;;;;;;;;;;;20.90;68.90;;;;;;5060734;28;20392;-54
2023/07/23 08:27:39;;;;;;;;;;;20.90;68.90;;;;;;5068391;28;20326;-52
2023/07/23 08:30:05;;;;;;;;;;;20.90;69.00;;;;;;5067628;28;19922;-54
2023/07/23 08:32:30;;;;;;;;;;;20.90;69.10;;;;;;5066430;28;20058;-54
2023/07/23 08:34:56;;;;;;;;;;;20.90;68.90;;;;;;5056909;28;20338;-54
2023/07/23 08:37:22;;;;;;;;;;;20.90;68.80;;;;;;5064075;28;19909;-54
2023/07/23 08:39:47;;;;;;;;;;;21.00;69.10;;;;;;5056713;28;19920;-54
2023/07/23 08:42:14;;;;;;;;;;;20.90;68.80;;;;;;5060708;28;19921;-54
2023/07/23 08:44:59;;;;;;;;;;;21.00;69.10;;;;;;5067289;28;20269;-54
2023/07/23 08:47:24;;;;;;;;;;;20.90;69.00;;;;;;5055860;28;19920;-54
2023/07/23 08:49:50;;;;;;;;;;;20.90;69.30;;;;;;5053641;28;19952;-54
2023/07/23 08:52:15;;;;;;;;;;;20.90;69.20;;;;;;5053651;28;19936;-55
2023/07/23 08:54:41;;;;;;;;;;;20.90;69.50;;;;;;5060889;28;20297;-54
2023/07/23 08:57:07;;;;;;;;;;;21.00;69.60;;;;;;5057679;28;20272;-54
2023/07/23 08:59:32;;;;;;;;;;;20.90;69.60;;;;;;5063920;28;19913;-54
2023/07/23 09:01:58;;;;;;;;;;;20.90;69.60;;;;;;5062480;28;19935;-54
2023/07/23 09:04:23;;;;;;;;;;;20.90;69.80;;;;;;5060488;28;19913;-54
2023/07/23 09:06:50;;;;;;;;;;;20.90;69.90;;;;;;5070508;28;19923;-53
2023/07/23 09:09:16;;;;;;;;;;;20.90;69.90;;;;;;5052204;28;19999;-53
2023/07/23 09:11:42;;;;;;;;;;;21.00;69.90;;;;;;5056489;28;19913;-54
2023/07/23 09:14:08;;;;;;;;;;;21.00;69.90;;;;;;5058587;28;19917;-54
2023/07/23 09:16:37;;;;;;;;;;;21.00;69.90;;;;;;5054019;28;19916;-53
2023/07/23 09:19:03;;;;;;;;;;;21.00;70.30;;;;;;5062746;28;20280;-53
2023/07/23 09:21:28;;;;;;;;;;;21.00;70.20;;;;;;5064231;28;20007;-54
2023/07/23 09:23:54;;;;;;;;;;;20.90;70.10;;;;;;5056088;28;19909;-53
2023/07/23 09:26:20;;;;;;;;;;;21.00;70.30;;;;;;5066786;28;19912;-54
2023/07/23 09:28:46;;;;;;;;;;;21.00;70.40;;;;;;5054247;28;19916;-54
2023/07/23 09:31:11;;;;;;;;;;;21.00;70.30;;;;;;5060207;28;19916;-53
2023/07/23 09:33:37;;;;;;;;;;;21.00;70.40;;;;;;5063006;28;19909;-53
2023/07/23 09:36:03;;;;;;;;;;;20.90;70.30;;;;;;5053904;28;19927;-54
2023/07/23 09:38:28;;;;;;;;;;;21.00;70.30;;;;;;5063198;28;20401;-54
2023/07/23 09:40:54;;;;;;;;;;;21.00;70.70;;;;;;5052750;28;19961;-54
2023/07/23 09:43:20;;;;;;;;;;;21.00;70.70;;;;;;5055101;28;19912;-54
2023/07/23 09:45:46;;;;;;;;;;;21.00;70.80;;;;;;5057383;28;20335;-53
2023/07/23 09:48:13;;;;;;;;;;;20.90;70.70;;;;;;5057422;28;19920;-54
2023/07/23 09:50:38;;;;;;;;;;;21.00;71.00;;;;;;5071550;28;19963;-53
2023/07/23 09:53:07;;;;;;;;;;;21.00;70.90;;;;;;5061497;28;19920;-53
2023/07/23 09:55:32;;;;;;;;;;;21.00;71.10;;;;;;5054931;28;20019;-54
2023/07/23 09:57:58;;;;;;;;;;;21.00;71.00;;;;;;5055779;28;20401;-54
2023/07/23 10:00:24;;;;;;;;;;;21.00;71.10;;;;;;5054361;28;20373;-53
2023/07/23 10:02:50;;;;;;;;;;;21.00;71.10;;;;;;5057550;28;20011;-53
2023/07/23 10:05:17;;;;;;;;;;;21.00;71.20;;;;;;5054312;28;20003;-53
2023/07/23 10:07:42;;;;;;;;;;;21.00;71.30;;;;;;5061825;28;19920;-54
2023/07/23 10:10:08;;;;;;;;;;;21.00;71.20;;;;;;5066471;28;19927;-53
2023/07/23 10:12:33;;;;;;;;;;;21.00;71.40;;;;;;5059251;28;19913;-54
2023/07/23 10:14:59;;;;;;;;;;;21.00;71.70;;;;;;5062225;28;19944;-54
2023/07/23 10:17:24;;;;;;;;;;;21.00;71.90;;;;;;5056461;28;19966;-53
2023/07/23 10:19:50;;;;;;;;;;;21.00;72.20;;;;;;5056089;28;20015;-53
2023/07/23 10:22:15;;;;;;;;;;;21.00;72.10;;;;;;5053597;28;19912;-54
2023/07/23 10:24:41;;;;;;;;;;;21.00;72.40;;;;;;5056842;28;19913;-54
2023/07/23 10:27:10;;;;;;;;;;;21.00;72.90;;;;;;5054685;28;19938;-53
2023/07/23 10:29:35;;;;;;;;;;;21.00;73.00;;;;;;5055908;28;19977;-54
2023/07/23 10:32:19;;;;;;;;;;;21.00;74.00;;;;;;5059610;28;19916;-54
2023/07/23 10:34:46;;;;;;;;;;;21.00;73.90;;;;;;5052891;28;20031;-54
2023/07/23 10:37:15;;;;;;;;;;;21.00;73.40;;;;;;5057362;28;19919;-54
2023/07/23 10:39:43;;;;;;;;;;;21.00;73.70;;;;;;5061471;28;19912;-54
2023/07/23 10:42:09;;;;;;;;;;;21.00;73.90;;;;;;5058586;28;19913;-54
2023/07/23 10:44:36;;;;;;;;;;;21.10;74.10;;;;;;5053589;28;19916;-54
2023/07/23 10:47:03;;;;;;;;;;;21.00;74.20;;;;;;5063922;28;19928;-54
2023/07/23 10:49:29;;;;;;;;;;;21.00;74.00;;;;;;5051959;28;19963;-53
2023/07/23 10:52:10;;;;;;;;;;;21.00;75.20;;;;;;5058933;28;19948;-54
2023/07/23 10:54:36;;;;;;;;;;;21.10;75.30;;;;;;5060720;28;19981;-54
2023/07/23 10:57:01;;;;;;;;;;;21.10;75.50;;;;;;5060155;28;20420;-54
2023/07/23 10:59:27;;;;;;;;;;;21.10;74.80;;;;;;5052832;28;20258;-54
2023/07/23 11:01:52;;;;;;;;;;;21.10;75.70;;;;;;5058463;28;19920;-54
2023/07/23 11:04:24;;;;;;;;;;;21.10;75.10;;;;;;5061512;28;19912;-54
2023/07/23 11:07:08;;;;;;;;;;;21.10;74.60;;;;;;5057581;28;19923;-54
2023/07/23 11:09:33;;;;;;;;;;;21.10;74.20;;;;;;5050410;28;20038;-54
2023/07/23 11:11:59;;;;;;;;;;;21.00;74.40;;;;;;5052806;28;20024;-53
2023/07/23 11:14:25;;;;;;;;;;;21.10;74.30;;;;;;5052472;28;19909;-54
2023/07/23 11:16:51;;;;;;;;;;;21.10;74.20;;;;;;5055159;28;20378;-53
2023/07/23 11:19:18;;;;;;;;;;;21.00;74.10;;;;;;5059611;28;19954;-53
2023/07/23 11:21:47;;;;;;;;;;;21.10;74.50;;;;;;5055087;28;19917;-55
2023/07/23 11:24:12;;;;;;;;;;;21.10;74.60;;;;;;5058319;28;19913;-53
2023/07/23 11:26:38;;;;;;;;;;;21.10;74.50;;;;;;5051443;28;19919;-54
2023/07/23 11:29:06;;;;;;;;;;;21.10;74.50;;;;;;5062609;28;19952;-54
2023/07/23 11:31:32;;;;;;;;;;;21.00;74.70;;;;;;5062811;28;19924;-53
2023/07/23 11:34:00;;;;;;;;;;;21.10;74.40;;;;;;5058009;28;19919;-53
2023/07/23 11:36:26;;;;;;;;;;;21.00;74.60;;;;;;5053545;28;20337;-53
2023/07/23 11:38:55;;;;;;;;;;;21.00;74.70;;;;;;5060726;28;19916;-54
2023/07/23 11:41:26;;;;;;;;;;;21.00;74.60;;;;;;5050939;28;19916;-54
2023/07/23 11:43:51;;;;;;;;;;;21.00;74.80;;;;;;5055966;28;19966;-54
2023/07/23 11:46:18;;;;;;;;;;;21.00;74.70;;;;;;5052004;28;19925;-53
2023/07/23 11:48:43;;;;;;;;;;;20.90;74.50;;;;;;5052489;28;20012;-53
2023/07/23 11:51:08;;;;;;;;;;;20.90;74.50;;;;;;5065221;28;20011;-54
2023/07/23 11:53:35;;;;;;;;;;;20.90;74.40;;;;;;5053166;28;19912;-54
2023/07/23 11:56:03;;;;;;;;;;;21.00;74.20;;;;;;5062611;28;19909;-54
2023/07/23 11:58:29;;;;;;;;;;;21.00;74.00;;;;;;5054804;28;20299;-54
2023/07/23 12:00:54;;;;;;;;;;;21.00;74.30;;;;;;5057276;28;20003;-54
2023/07/23 12:03:20;;;;;;;;;;;21.00;74.20;;;;;;5052211;28;20380;-54
2023/07/23 12:05:45;;;;;;;;;;;21.00;74.30;;;;;;5056178;28;20579;-53
2023/07/23 12:08:10;;;;;;;;;;;21.00;74.50;;;;;;5051838;28;19920;-54
2023/07/23 12:10:36;;;;;;;;;;;20.90;74.40;;;;;;5056405;28;19944;-54
2023/07/23 12:13:08;;;;;;;;;;;21.00;74.20;;;;;;5054825;28;19913;-54
2023/07/23 12:15:34;;;;;;;;;;;21.00;74.20;;;;;;5056484;28;20050;-53
2023/07/23 12:17:59;;;;;;;;;;;21.00;74.30;;;;;;5056003;28;20535;-54
2023/07/23 12:20:25;;;;;;;;;;;21.00;74.70;;;;;;5056511;28;20277;-54
2023/07/23 12:22:55;;;;;;;;;;;21.00;74.80;;;;;;5058834;28;20377;-53
2023/07/23 12:25:20;;;;;;;;;;;20.90;75.00;;;;;;5067786;28;19917;-54
2023/07/23 12:27:46;;;;;;;;;;;20.90;76.10;;;;;;5070943;28;19923;-53
2023/07/23 12:30:11;;;;;;;;;;;20.70;77.10;;;;;;5062204;28;19913;-54
2023/07/23 12:32:37;;;;;;;;;;;20.60;77.80;;;;;;5058227;28;20371;-54
2023/07/23 12:35:02;;;;;;;;;;;20.50;78.10;;;;;;5054955;28;19917;-53
2023/07/23 12:37:28;;;;;;;;;;;20.50;78.00;;;;;;5059646;28;19921;-54
2023/07/23 12:39:54;;;;;;;;;;;20.60;78.10;;;;;;5057497;28;19913;-54
2023/07/23 12:42:19;;;;;;;;;;;20.50;77.90;;;;;;5064957;28;19919;-54
2023/07/23 12:44:44;;;;;;;;;;;20.50;78.00;;;;;;5062548;28;19919;-54
2023/07/23 12:47:10;;;;;;;;;;;20.50;77.70;;;;;;5075131;28;19958;-54
2023/07/23 12:49:36;;;;;;;;;;;20.50;77.60;;;;;;5065119;28;19956;-54
2023/07/23 12:52:01;;;;;;;;;;;20.50;77.40;;;;;;5056290;28;20011;-54
2023/07/23 12:54:26;;;;;;;;;;;20.50;77.50;;;;;;5051499;28;19919;-53
2023/07/23 12:56:53;;;;;;;;;;;20.50;77.40;;;;;;5058451;28;19970;-54
2023/07/23 12:59:18;;;;;;;;;;;20.50;77.50;;;;;;5048678;28;19921;-53
2023/07/23 13:01:44;;;;;;;;;;;20.40;77.40;;;;;;5052941;28;19913;-54
2023/07/23 13:04:09;;;;;;;;;;;20.40;77.40;;;;;;5055092;28;19927;-54
2023/07/23 13:06:35;;;;;;;;;;;20.40;77.40;;;;;;5057003;28;19913;-53
2023/07/23 13:09:00;;;;;;;;;;;20.40;77.50;;;;;;5058707;28;19913;-53
2023/07/23 13:11:26;;;;;;;;;;;20.50;77.40;;;;;;5057209;28;19913;-54
2023/07/23 13:13:51;;;;;;;;;;;20.50;77.10;;;;;;5063917;28;19916;-54
2023/07/23 13:16:17;;;;;;;;;;;20.50;76.90;;;;;;5069644;28;19926;-53
2023/07/23 13:18:42;;;;;;;;;;;20.50;77.10;;;;;;5055922;28;19927;-53
2023/07/23 13:21:07;;;;;;;;;;;20.50;76.90;;;;;;5064144;28;19956;-54
2023/07/23 13:23:33;;;;;;;;;;;20.60;76.70;;;;;;5053786;28;19913;-54
2023/07/23 13:25:59;;;;;;;;;;;20.50;76.70;;;;;;5065150;28;19914;-54
2023/07/23 13:28:24;;;;;;;;;;;20.50;76.80;;;;;;5061988;28;19920;-53
2023/07/23 13:30:50;;;;;;;;;;;20.50;76.70;;;;;;5062525;28;19913;-53
2023/07/23 13:33:15;;;;;;;;;;;20.50;76.80;;;;;;5054618;28;19909;-54
2023/07/23 13:35:41;;;;;;;;;;;20.40;76.60;;;;;;5055168;28;19994;-54
2023/07/23 13:38:06;;;;;;;;;;;20.50;76.40;;;;;;5057364;28;19912;-53
2023/07/23 13:40:32;;;;;;;;;;;20.50;76.40;;;;;;5053643;28;19912;-54
2023/07/23 13:42:57;;;;;;;;;;;20.50;76.40;;;;;;5057175;28;19917;-54
2023/07/23 13:45:23;;;;;;;;;;;20.40;76.30;;;;;;5055050;28;19917;-54
2023/07/23 13:47:49;;;;;;;;;;;20.50;76.20;;;;;;5055862;28;19921;-55
2023/07/23 13:50:15;;;;;;;;;;;20.50;76.10;;;;;;5057034;28;19912;-54
2023/07/23 13:52:40;;;;;;;;;;;20.50;76.10;;;;;;5057025;28;19966;-54
2023/07/23 13:55:06;;;;;;;;;;;20.60;76.20;;;;;;5054138;28;20389;-54
2023/07/23 13:57:31;;;;;;;;;;;20.60;76.30;;;;;;5053424;28;20004;-54
2023/07/23 13:59:57;;;;;;;;;;;20.60;76.20;;;;;;5059201;28;19920;-54
2023/07/23 14:02:22;;;;;;;;;;;20.60;76.30;;;;;;5060814;28;20816;-54
2023/07/23 14:04:48;;;;;;;;;;;20.60;76.50;;;;;;5059174;28;19971;-54
2023/07/23 14:07:13;;;;;;;;;;;20.50;76.30;;;;;;5055538;28;19932;-54
2023/07/23 14:09:39;;;;;;;;;;;20.50;76.30;;;;;;5058440;28;19913;-54